Time;durP1;ratioP1;P1;durP2;ratioP2;P2;SDS_P1;SDS_P2;PMS_P1;PMS_P2;Temp;Humidity;BMP_temperature;BMP_pressure;BME280_temperature;BME280_humidity;BME280_pressure;Samples;Min_cycle;Max_cycle;Signal;HPM_P1;HPM_P2
2022/09/17 00:02:54;;;;;;;6.72;2.00;;;;;;;9.73;85.55;98165.09;8401993;28;20051;-83
2022/09/17 00:06:55;;;;;;;5.85;2.05;;;;;;;9.67;85.89;98155.63;8398800;28;20056;-82
2022/09/17 00:10:57;;;;;;;3.33;2.00;;;;;;;9.67;85.95;98160.22;8408120;28;20165;-80
2022/09/17 00:14:58;;;;;;;2.80;1.80;;;;;;;9.62;86.07;98155.78;8403998;28;20526;-80
2022/09/17 00:19:00;;;;;;;5.50;1.90;;;;;;;9.58;86.27;98146.78;8413819;28;20060;-79
2022/09/17 00:23:01;;;;;;;3.85;1.73;;;;;;;9.55;86.30;98152.84;8391604;28;20147;-81
2022/09/17 00:27:02;;;;;;;5.70;1.88;;;;;;;9.50;86.46;98144.94;8405181;28;20113;-80
2022/09/17 00:31:08;;;;;;;4.72;1.90;;;;;;;9.47;86.56;98140.19;8403579;28;20068;-80
2022/09/17 00:35:09;;;;;;;3.80;1.75;;;;;;;9.45;86.29;98153.19;8400486;28;20052;-80
2022/09/17 00:39:15;;;;;;;3.53;1.98;;;;;;;9.44;86.37;98146.22;8402536;28;20486;-80
2022/09/17 00:43:45;;;;;;;5.10;2.30;;;;;;;9.42;86.28;98151.13;8405488;28;20052;-80
2022/09/17 00:47:56;;;;;;;4.32;1.83;;;;;;;9.39;86.47;98143.72;8399793;28;20452;-82
2022/09/17 00:52:16;;;;;;;4.13;1.80;;;;;;;9.39;86.18;98143.72;8407453;28;20046;-80
2022/09/17 00:56:24;;;;;;;4.97;1.67;;;;;;;9.36;86.34;98144.34;8395267;28;20098;-82
2022/09/17 01:00:26;;;;;;;8.60;1.73;;;;;;;9.35;86.11;98137.41;8398651;28;20418;-80
2022/09/17 01:04:27;;;;;;;10.23;1.58;;;;;;;9.34;86.17;98141.19;8398207;28;20075;-80
2022/09/17 01:08:43;;;;;;;5.00;2.22;;;;;;;9.35;86.05;98132.00;8399739;28;20051;-81
2022/09/17 01:12:58;;;;;;;5.85;1.88;;;;;;;9.36;85.81;98138.94;8401174;28;20059;-81
2022/09/17 01:17:10;;;;;;;3.28;2.15;;;;;;;9.36;85.73;98138.94;8397955;28;20056;-80
2022/09/17 01:21:24;;;;;;;5.20;1.65;;;;;;;9.34;85.58;98127.72;8399359;28;20444;-81
2022/09/17 01:25:41;;;;;;;4.78;1.50;;;;;;;9.34;85.42;98119.66;8362774;28;20052;-80
2022/09/17 01:30:11;;;;;;;5.13;1.65;;;;;;;9.35;85.19;98121.22;8399491;28;20049;-80
2022/09/17 01:34:23;;;;;;;5.10;1.70;;;;;;;9.35;85.19;98110.44;8398335;28;20482;-81
2022/09/17 01:38:30;;;;;;;7.13;2.10;;;;;;;9.35;85.03;98115.84;8391039;28;20051;-82
2022/09/17 01:42:48;;;;;;;8.32;1.60;;;;;;;9.42;84.63;98104.53;8373049;28;20049;-82
2022/09/17 01:46:56;;;;;;;5.00;1.85;;;;;;;9.45;84.46;98110.09;8398633;28;20036;-84
2022/09/17 01:51:04;;;;;;;6.70;1.67;;;;;;;9.51;83.94;98114.19;8397394;28;20045;-84
2022/09/17 01:55:07;;;;;;;3.20;1.60;;;;;;;9.53;83.76;98111.94;8398579;28;20497;-82
2022/09/17 01:59:22;;;;;;;5.88;1.70;;;;;;;9.55;83.93;98115.09;8396838;28;20041;-82
2022/09/17 02:03:39;;;;;;;8.50;1.70;;;;;;;9.60;83.77;98109.53;8382588;28;20193;-84
2022/09/17 02:07:45;;;;;;;8.57;2.03;;;;;;;9.61;83.41;98102.22;8412600;28;20052;-86
2022/09/17 02:11:50;;;;;;;3.72;1.60;;;;;;;9.62;83.51;98109.19;8409050;28;20944;-82
2022/09/17 02:15:58;;;;;;;6.35;1.42;;;;;;;9.64;83.20;98107.75;8408104;28;20474;-81
2022/09/17 02:19:59;;;;;;;8.53;1.63;;;;;;;9.64;83.29;98113.13;8413441;28;20060;-82
2022/09/17 02:24:17;;;;;;;8.23;1.73;;;;;;;9.61;83.37;98113.81;8412542;28;20068;-81
2022/09/17 02:28:32;;;;;;;10.13;2.30;;;;;;;9.58;83.45;98114.44;8400838;28;20057;-81
2022/09/17 02:32:33;;;;;;;3.80;1.25;;;;;;;9.64;83.36;98107.75;8414855;28;20040;-81
2022/09/17 02:36:37;;;;;;;7.75;1.70;;;;;;;9.72;83.10;98106.13;8418914;28;20442;-81
2022/09/17 02:40:46;;;;;;;7.32;1.48;;;;;;;9.80;82.78;98104.47;8396524;28;20473;-82
2022/09/17 02:45:04;;;;;;;3.40;1.17;;;;;;;9.86;82.33;98097.78;8400627;28;20421;-84
2022/09/17 02:49:06;;;;;;;;;;;;;;;9.93;82.25;98098.06;8405530;28;20037;-84
2022/09/17 02:53:37;;;;;;;7.10;1.55;;;;;;;9.97;82.21;98094.38;8413374;28;19926;-82
2022/09/17 02:58:09;;;;;;;4.05;1.30;;;;;;;10.01;82.46;98099.88;8412862;28;20045;-83
2022/09/17 03:02:22;;;;;;;2.28;1.48;;;;;;;9.99;82.36;98091.34;8399736;28;20040;-82
2022/09/17 03:06:23;;;;;;;7.00;1.25;;;;;;;10.04;81.93;98099.25;8392947;28;20049;-83
2022/09/17 03:10:24;;;;;;;5.20;1.50;;;;;;;10.06;82.00;98097.00;8396756;28;20789;-82
2022/09/17 03:14:25;;;;;;;4.70;1.30;;;;;;;10.02;82.71;98096.06;8395773;28;20036;-84
2022/09/17 03:18:26;;;;;;;8.15;1.60;;;;;;;9.95;84.32;98090.41;8391393;28;20056;-82
2022/09/17 03:22:27;;;;;;;7.65;1.85;;;;;;;9.81;86.04;98090.66;8394736;28;20036;-80
2022/09/17 03:26:28;;;;;;;9.32;1.52;;;;;;;9.70;87.28;98090.25;8347676;28;20052;-83
2022/09/17 03:30:29;;;;;;;3.53;1.60;;;;;;;9.63;88.31;98095.38;8334750;28;20072;-84
2022/09/17 03:34:30;;;;;;;8.27;1.92;;;;;;;9.59;88.91;98089.06;8324465;28;20438;-82
2022/09/17 03:38:33;;;;;;;8.02;1.85;;;;;;;9.57;89.43;98083.19;8325659;28;20104;-83
2022/09/17 03:42:34;;;;;;;6.68;1.73;;;;;;;9.55;89.80;98082.75;8323991;28;20467;-86
2022/09/17 03:46:37;;;;;;;6.43;1.63;;;;;;;9.56;90.24;98089.72;8324907;28;20473;-87
2022/09/17 03:50:38;;;;;;;7.68;1.70;;;;;;;9.58;90.30;98087.47;8292321;28;20107;-82
2022/09/17 03:54:39;;;;;;;6.43;1.70;;;;;;;9.59;90.39;98089.06;8326042;28;20061;-82
2022/09/17 03:58:40;;;;;;;10.35;2.30;;;;;;;9.65;90.34;98086.97;8328727;28;20076;-80
2022/09/17 04:02:41;;;;;;;8.68;2.10;;;;;;;9.67;90.69;98085.53;8359454;28;20405;-85
2022/09/17 04:06:42;;;;;;;6.75;2.00;;;;;;;9.71;90.38;98078.38;8395946;28;20497;-83
2022/09/17 04:10:43;;;;;;;10.73;2.15;;;;;;;9.72;90.73;98093.44;8369952;28;20036;-86
2022/09/17 04:14:44;;;;;;;9.38;2.05;;;;;;;9.75;90.83;98095.47;8374141;28;20056;-84
2022/09/17 04:18:45;;;;;;;8.48;2.13;;;;;;;9.79;90.65;98089.41;8370964;28;20053;-86
2022/09/17 04:22:46;;;;;;;7.25;2.08;;;;;;;9.78;90.84;98095.94;8345830;28;20426;-84
2022/09/17 04:26:47;;;;;;;13.05;2.10;;;;;;;9.81;90.71;98095.28;8349348;28;20073;-81
2022/09/17 04:30:48;;;;;;;7.70;1.63;;;;;;;9.83;91.03;98101.94;8372991;28;20569;-84
2022/09/17 04:34:49;;;;;;;5.75;2.03;;;;;;;9.82;91.80;98102.25;8354141;28;20076;-85
2022/09/17 04:38:50;;;;;;;7.00;2.25;;;;;;;9.78;92.75;98104.03;8359750;28;20059;-83
2022/09/17 04:42:52;;;;;;;10.73;2.35;;;;;;;9.77;93.24;98105.13;8346928;28;20053;-84
2022/09/17 04:46:53;;;;;;;5.10;2.28;;;;;;;9.77;93.20;98105.94;8388248;28;20060;-84
2022/09/17 04:50:58;;;;;;;7.63;2.10;;;;;;;9.80;93.21;98104.47;8385764;28;20052;-81
2022/09/17 04:54:59;;;;;;;5.97;2.25;;;;;;;9.81;93.91;98111.44;8381125;28;20051;-84
2022/09/17 04:59:00;;;;;;;6.18;2.60;;;;;;;9.80;93.84;98104.47;8392404;28;20474;-82
2022/09/17 05:03:01;;;;;;;9.15;2.47;;;;;;;9.86;93.77;98119.34;8371251;28;20075;-82
2022/09/17 05:07:02;;;;;;;10.73;3.03;;;;;;;9.86;93.69;98113.97;8387324;28;20041;-82
2022/09/17 05:11:03;;;;;;;16.58;3.00;;;;;;;9.89;93.49;98124.88;8397335;28;20414;-81
2022/09/17 05:15:05;;;;;;;7.47;2.80;;;;;;;9.93;93.42;98119.63;8393508;28;20482;-82
2022/09/17 05:19:06;;;;;;;7.20;2.63;;;;;;;9.98;93.23;98122.13;8399956;28;20044;-82
2022/09/17 05:23:08;;;;;;;9.80;3.20;;;;;;;9.98;93.56;98117.53;8403155;28;20060;-83
2022/09/17 05:27:09;;;;;;;12.13;3.13;;;;;;;10.00;93.56;98115.28;8398671;28;20474;-84
2022/09/17 05:31:12;;;;;;;6.90;2.85;;;;;;;10.01;93.48;98121.47;8407510;28;20068;-86
2022/09/17 05:35:13;;;;;;;16.35;3.72;;;;;;;9.98;94.19;98117.53;8400951;28;20059;-86
2022/09/17 05:39:14;;;;;;;10.95;3.30;;;;;;;9.96;94.63;98113.56;8344013;28;20423;-84
2022/09/17 05:43:16;;;;;;;7.60;3.20;;;;;;;9.93;95.29;98119.63;8376532;28;20053;-83
2022/09/17 05:47:18;;;;;;;9.48;3.33;;;;;;;9.91;96.01;98119.16;8376413;28;20044;-82
2022/09/17 05:51:18;;;;;;;11.68;3.35;;;;;;;9.90;96.34;98117.56;8383147;28;20128;-83
2022/09/17 05:55:21;;;;;;;11.65;3.38;;;;;;;9.94;96.43;98115.81;8377434;28;20444;-83
2022/09/17 05:59:22;;;;;;;12.65;3.28;;;;;;;9.93;97.20;98108.84;8380442;28;20041;-81
2022/09/17 06:03:23;;;;;;;9.07;4.00;;;;;;;9.97;97.10;98117.84;8389486;28;20040;-82
2022/09/17 06:07:24;;;;;;;11.27;3.58;;;;;;;10.04;96.97;98123.53;8380959;28;20123;-81
2022/09/17 06:11:25;;;;;;;10.73;3.70;;;;;;;10.10;97.00;98117.56;8376631;28;20059;-81
2022/09/17 06:15:27;;;;;;;7.45;3.55;;;;;;;10.10;97.01;98114.88;8383339;28;20053;-83
2022/09/17 06:19:28;;;;;;;9.25;3.83;;;;;;;10.10;96.99;98114.09;8396360;28;20041;-83
2022/09/17 06:23:36;;;;;;;11.02;3.55;;;;;;;10.18;96.73;98118.66;8387909;28;20056;-82
2022/09/17 06:27:37;;;;;;;12.10;4.07;;;;;;;10.22;96.99;98116.88;8387442;28;20064;-84
2022/09/17 06:31:38;;;;;;;7.75;3.65;;;;;;;10.31;96.63;98117.59;8392907;28;20052;-82
2022/09/17 06:35:39;;;;;;;14.40;3.95;;;;;;;10.39;96.63;98122.16;8395086;28;20071;-84
2022/09/17 06:39:40;;;;;;;7.10;3.53;;;;;;;10.42;96.15;98121.47;8370446;28;20057;-82
2022/09/17 06:43:41;;;;;;;7.20;3.70;;;;;;;10.52;95.86;98131.84;8387897;28;20064;-81
2022/09/17 06:47:42;;;;;;;12.20;3.88;;;;;;;10.54;95.70;98129.63;8395434;28;20052;-83
2022/09/17 06:51:44;;;;;;;12.38;3.70;;;;;;;10.56;95.87;98138.19;8393602;28;20071;-86
2022/09/17 06:55:45;;;;;;;12.10;3.97;;;;;;;10.57;95.99;98139.75;8395737;28;20052;-82
2022/09/17 06:59:46;;;;;;;11.48;3.90;;;;;;;10.68;95.58;98150.16;8396412;28;20480;-83
2022/09/17 07:03:50;;;;;;;16.73;4.22;;;;;;;10.72;95.45;98151.88;8413867;28;20062;-83
2022/09/17 07:07:51;;;;;;;9.95;3.95;;;;;;;10.70;95.42;98142.50;8416742;28;20044;-83
2022/09/17 07:11:52;;;;;;;11.00;3.90;;;;;;;10.70;95.37;98147.91;8398016;28;20040;-82
2022/09/17 07:16:03;;;;;;;13.25;4.35;;;;;;;10.74;95.36;98154.22;8414669;28;20044;-82
2022/09/17 07:20:06;;;;;;;10.23;4.28;;;;;;;10.81;95.07;98149.06;8422514;28;20148;-82
2022/09/17 07:24:08;;;;;;;13.65;4.28;;;;;;;10.83;94.66;98146.84;8396717;28;20080;-87
2022/09/17 07:28:09;;;;;;;12.75;4.50;;;;;;;10.85;94.65;98149.97;8412465;28;20048;-89
2022/09/17 07:32:10;;;;;;;8.40;3.97;;;;;;;10.78;95.73;98149.75;8422785;28;20043;-82
2022/09/17 07:36:12;;;;;;;11.82;4.10;;;;;;;10.77;96.39;98154.34;8407820;28;20040;-82
2022/09/17 07:40:14;;;;;;;10.82;4.07;;;;;;;10.76;97.06;98168.19;8402738;28;20056;-82
2022/09/17 07:44:14;;;;;;;12.20;4.28;;;;;;;10.76;97.22;98173.59;8397922;28;20087;-81
2022/09/17 07:48:15;;;;;;;11.80;4.10;;;;;;;10.81;97.75;98182.28;8414962;28;20568;-82
2022/09/17 07:52:16;;;;;;;16.20;4.93;;;;;;;10.87;97.52;98201.75;8425129;28;20060;-83
2022/09/17 07:56:18;;;;;;;16.77;4.65;;;;;;;10.90;97.46;98206.50;8423074;28;20052;-83
2022/09/17 08:00:19;;;;;;;15.93;5.25;;;;;;;10.92;97.44;98215.06;8398174;28;20500;-83
2022/09/17 08:04:20;;;;;;;11.75;4.60;;;;;;;10.94;97.40;98207.44;8417896;28;20056;-82
2022/09/17 08:08:24;;;;;;;18.63;5.60;;;;;;;10.98;97.31;98211.03;8409648;28;20542;-81
2022/09/17 08:12:25;;;;;;;17.13;5.32;;;;;;;11.02;96.91;98209.25;8411996;28;20067;-82
2022/09/17 08:16:26;;;;;;;11.63;4.50;;;;;;;11.06;96.39;98199.34;8417205;28;20052;-81
2022/09/17 08:20:28;;;;;;;8.82;4.25;;;;;;;11.16;95.85;98198.13;8397367;28;20135;-81
2022/09/17 08:24:28;;;;;;;21.13;4.38;;;;;;;11.20;95.65;98205.25;8396097;28;20064;-82
2022/09/17 08:28:30;;;;;;;11.25;3.60;;;;;;;11.21;95.23;98204.09;8357131;28;20097;-81
2022/09/17 08:32:31;;;;;;;9.63;3.80;;;;;;;11.20;95.05;98210.66;8384824;28;20036;-81
2022/09/17 08:36:32;;;;;;;15.43;4.07;;;;;;;11.22;95.07;98207.59;8393137;28;20587;-82
2022/09/17 08:40:43;;;;;;;9.85;3.80;;;;;;;11.26;94.90;98214.69;8406859;28;20063;-82
2022/09/17 08:44:46;;;;;;;9.90;4.70;;;;;;;11.29;94.49;98214.06;8392893;28;20043;-83
2022/09/17 08:48:52;;;;;;;11.88;3.78;;;;;;;11.34;94.24;98213.84;8393689;28;20401;-84
2022/09/17 08:53:22;;;;;;;13.25;4.15;;;;;;;11.32;93.99;98213.38;8395958;28;20071;-84
2022/09/17 08:57:44;;;;;;;9.38;4.00;;;;;;;11.37;93.45;98215.06;8397028;28;20098;-84
2022/09/17 09:02:35;;;;;;;12.38;3.67;;;;;;;11.42;93.23;98204.81;8399833;28;20040;-88
2022/09/17 09:06:46;;;;;;;12.60;4.07;;;;;;;11.50;92.89;98191.56;8245650;28;20046;-83
2022/09/17 09:10:54;;;;;;;11.52;3.65;;;;;;;11.52;92.52;98197.41;8250037;28;20046;-83
2022/09/17 09:14:59;;;;;;;12.63;4.37;;;;;;;11.60;92.04;98185.69;8249775;28;20054;-82
2022/09/17 09:19:10;;;;;;;9.68;4.00;;;;;;;11.73;91.75;98200.84;8228398;28;20046;-82
2022/09/17 09:23:18;;;;;;;14.25;3.15;;;;;;;11.94;91.06;98211.56;8249165;28;20140;-85
2022/09/17 09:27:32;;;;;;;13.40;3.38;;;;;;;12.11;90.35;98211.28;8249051;28;20078;-84
2022/09/17 09:32:05;;;;;;;8.77;3.30;;;;;;;12.19;89.96;98222.03;8249118;28;20077;-84
2022/09/17 09:36:20;;;;;;;10.93;3.60;;;;;;;12.30;89.44;98208.81;8232101;28;20460;-84
2022/09/17 09:40:40;;;;;;;9.38;3.60;;;;;;;12.36;88.69;98217.47;8343074;28;20068;-85
2022/09/17 09:44:41;;;;;;;8.88;3.67;;;;;;;12.47;88.28;98234.84;8399189;28;20044;-85
2022/09/17 09:49:01;;;;;;;11.38;3.72;;;;;;;12.59;88.13;98253.75;8399295;28;20055;-86
2022/09/17 09:53:02;;;;;;;12.95;4.63;;;;;;;12.61;87.28;98251.50;8412771;28;20232;-85
2022/09/17 09:57:09;;;;;;;10.93;3.75;;;;;;;12.64;86.97;98251.59;8401308;28;20048;-86
2022/09/17 10:01:13;;;;;;;12.02;3.95;;;;;;;12.49;87.20;98265.06;8399936;28;20504;-85
2022/09/17 10:05:14;;;;;;;9.90;4.53;;;;;;;12.32;87.81;98266.09;8414379;28;20051;-86
2022/09/17 10:09:19;;;;;;;7.53;4.50;;;;;;;12.19;88.39;98262.63;8428226;28;20056;-85
2022/09/17 10:13:21;;;;;;;8.77;4.50;;;;;;;12.16;89.00;98263.28;8427210;28;20056;-84
2022/09/17 10:17:26;;;;;;;9.15;4.60;;;;;;;12.17;89.07;98281.09;8417776;28;20036;-83
2022/09/17 10:21:33;;;;;;;10.13;4.57;;;;;;;12.25;89.02;98272.09;8409819;28;20413;-83
2022/09/17 10:25:34;;;;;;;12.52;5.57;;;;;;;12.31;89.05;98280.00;8418099;28;20500;-86
2022/09/17 10:29:35;;;;;;;11.02;5.00;;;;;;;12.47;88.77;98272.75;8432454;28;20071;-85
2022/09/17 10:33:58;;;;;;;7.10;4.20;;;;;;;12.80;87.44;98286.88;8422112;28;20102;-85
2022/09/17 10:37:59;;;;;;;7.60;4.45;;;;;;;13.07;86.02;98286.13;8412855;28;20053;-86
2022/09/17 10:42:00;;;;;;;6.18;4.70;;;;;;;13.19;84.91;98265.56;8399476;28;20093;-84
2022/09/17 10:46:01;;;;;;;10.63;4.22;;;;;;;13.16;84.61;98266.25;8411182;28;20126;-84
2022/09/17 10:50:18;;;;;;;8.95;4.45;;;;;;;13.05;84.92;98282.19;8400352;28;20126;-85
2022/09/17 10:54:45;;;;;;;8.48;4.60;;;;;;;12.98;85.17;98288.19;8420312;28;20052;-85
2022/09/17 10:58:57;;;;;;;10.98;4.30;;;;;;;12.97;85.44;98292.03;8400354;28;20056;-85
2022/09/17 11:03:26;;;;;;;11.60;4.30;;;;;;;13.04;85.07;98284.13;8416864;28;20033;-87
2022/09/17 11:07:49;;;;;;;6.33;4.00;;;;;;;13.12;84.66;98279.69;8377061;28;20057;-83
2022/09/17 11:12:08;;;;;;;10.77;3.88;;;;;;;13.07;84.81;98269.88;8425022;28;20435;-83
2022/09/17 11:16:12;;;;;;;;;;;;;;;13.01;85.11;98265.81;8399482;28;20049;-85
2022/09/17 11:20:36;;;;;;;9.90;4.05;;;;;;;12.94;85.45;98260.22;8382234;28;19924;-81
2022/09/17 11:25:14;;;;;;;5.95;3.88;;;;;;;13.13;85.79;98250.66;8394725;28;20048;-84
2022/09/17 11:29:34;;;;;;;26.98;14.23;;;;;;;13.62;84.57;98238.44;8245550;28;20054;-86
2022/09/17 11:33:58;;;;;;;7.70;3.95;;;;;;;14.01;82.61;98235.91;8228545;28;20467;-85
2022/09/17 11:38:29;;;;;;;8.35;3.20;;;;;;;14.13;82.85;98238.47;8227771;28;20050;-82
2022/09/17 11:42:36;;;;;;;8.38;3.78;;;;;;;14.23;82.19;98237.94;8160145;29;20127;-82
2022/09/17 11:46:52;;;;;;;11.13;3.20;;;;;;;14.27;82.03;98233.41;8158969;29;20047;-83
2022/09/17 11:50:57;;;;;;;11.00;3.30;;;;;;;14.44;81.32;98222.16;8145950;29;20049;-82
2022/09/17 11:55:16;;;;;;;9.02;2.75;;;;;;;14.86;80.03;98222.25;8152082;29;20047;-83
2022/09/17 11:59:36;;;;;;;7.75;2.33;;;;;;;14.74;78.90;98220.50;8169989;29;20058;-84
2022/09/17 12:03:44;;;;;;;5.82;2.20;;;;;;;14.52;79.31;98218.47;8193048;28;20446;-84
2022/09/17 12:07:54;;;;;;;5.05;2.03;;;;;;;14.45;78.59;98212.88;8296864;28;20045;-87
2022/09/17 12:12:03;;;;;;;9.07;2.40;;;;;;;14.38;78.52;98207.31;8323059;28;20073;-86
2022/09/17 12:16:12;;;;;;;10.35;2.80;;;;;;;14.35;78.68;98218.81;8304845;28;20064;-85
2022/09/17 12:20:30;;;;;;;;;;;;;;;14.27;78.25;98203.53;8391909;28;20140;-84
2022/09/17 12:24:31;;;;;;;6.18;2.05;;;;;;;14.31;78.40;98188.09;8393997;28;19927;-84
2022/09/17 12:28:44;;;;;;;6.80;2.30;;;;;;;14.52;77.96;98185.84;8400313;28;20196;-85
2022/09/17 12:33:07;;;;;;;6.72;2.50;;;;;;;15.21;76.66;98184.09;8418838;28;20408;-84
2022/09/17 12:37:26;;;;;;;5.47;2.30;;;;;;;15.17;76.05;98178.56;8409129;28;20068;-81
2022/09/17 12:41:39;;;;;;;7.20;2.70;;;;;;;15.02;76.98;98186.84;8392183;28;20048;-84
2022/09/17 12:46:05;;;;;;;7.05;2.33;;;;;;;14.93;76.78;98183.56;8398556;28;20489;-84
2022/09/17 12:50:12;;;;;;;4.47;2.17;;;;;;;14.84;77.18;98185.72;8400684;28;20414;-82
2022/09/17 12:54:41;;;;;;;6.07;1.90;;;;;;;14.77;77.26;98176.28;8398803;28;20144;-83
2022/09/17 12:59:01;;;;;;;4.88;1.85;;;;;;;14.93;77.26;98178.91;8391548;28;20048;-86
2022/09/17 13:03:34;;;;;;;6.03;1.77;;;;;;;14.98;75.60;98169.66;8403781;28;20449;-84
2022/09/17 13:07:44;;;;;;;3.78;1.80;;;;;;;15.01;74.37;98163.53;8409149;28;20401;-84
2022/09/17 13:11:48;;;;;;;5.28;1.92;;;;;;;14.94;74.55;98157.94;8362539;28;20091;-83
2022/09/17 13:16:26;;;;;;;4.50;1.92;;;;;;;15.01;74.96;98147.22;8366913;28;20150;-85
2022/09/17 13:20:47;;;;;;;5.82;1.73;;;;;;;15.05;73.72;98131.75;8358248;28;20053;-83
2022/09/17 13:25:02;;;;;;;5.60;1.75;;;;;;;14.91;73.47;98136.94;8296737;28;20056;-82
2022/09/17 13:29:08;;;;;;;4.43;1.70;;;;;;;14.75;74.20;98135.06;8339531;28;20050;-81
2022/09/17 13:33:10;;;;;;;3.67;1.60;;;;;;;14.56;74.57;98142.44;8327970;28;20058;-86
2022/09/17 13:37:21;;;;;;;3.55;1.80;;;;;;;14.62;74.83;98141.81;8326764;28;20069;-83
2022/09/17 13:41:24;;;;;;;4.50;1.40;;;;;;;14.76;74.68;98142.09;8343104;28;20048;-83
2022/09/17 13:45:25;;;;;;;3.85;1.50;;;;;;;14.65;75.01;98146.53;8390394;28;20056;-83
2022/09/17 13:49:26;;;;;;;3.53;1.58;;;;;;;14.45;75.80;98153.09;8397104;28;20036;-82
2022/09/17 13:53:27;;;;;;;3.35;1.58;;;;;;;14.26;76.38;98161.22;8394124;28;20055;-81
2022/09/17 13:57:32;;;;;;;8.20;2.17;;;;;;;14.13;77.29;98157.03;8395057;28;20063;-83
2022/09/17 14:02:00;;;;;;;4.60;2.05;;;;;;;13.89;79.02;98158.84;8396247;28;20041;-82
2022/09/17 14:06:07;;;;;;;5.20;1.90;;;;;;;13.70;80.55;98161.50;8395294;28;20493;-81
2022/09/17 14:10:11;;;;;;;5.80;1.75;;;;;;;13.63;81.73;98169.47;8396087;28;20443;-82
2022/09/17 14:14:12;;;;;;;3.00;1.83;;;;;;;13.39;83.65;98177.78;8392373;28;20040;-82
2022/09/17 14:18:28;;;;;;;8.27;1.90;;;;;;;13.24;85.03;98165.00;8391581;28;20405;-87
2022/09/17 14:22:29;;;;;;;5.60;1.70;;;;;;;13.21;85.37;98154.84;8395741;28;20043;-81
2022/09/17 14:26:44;;;;;;;4.72;1.90;;;;;;;13.22;85.37;98153.72;8395187;28;20045;-83
2022/09/17 14:30:45;;;;;;;4.90;1.70;;;;;;;13.25;85.61;98147.59;8375385;28;20044;-83
2022/09/17 14:34:48;;;;;;;5.93;2.00;;;;;;;13.15;85.89;98145.41;8395331;28;20131;-82
2022/09/17 14:38:52;;;;;;;3.97;1.80;;;;;;;13.11;85.99;98140.66;8395144;28;20043;-81
2022/09/17 14:42:55;;;;;;;5.55;1.92;;;;;;;13.11;85.96;98135.25;8392193;28;20451;-82
2022/09/17 14:47:05;;;;;;;4.15;2.00;;;;;;;13.06;85.89;98138.19;8394289;28;20410;-82
2022/09/17 14:51:19;;;;;;;3.90;1.67;;;;;;;13.08;86.18;98130.50;8393991;28;20045;-82
2022/09/17 14:55:25;;;;;;;4.80;1.90;;;;;;;13.14;85.62;98124.84;8392702;28;20302;-83
2022/09/17 14:59:35;;;;;;;6.93;1.98;;;;;;;13.30;84.91;98120.22;8392873;28;20078;-82
2022/09/17 15:03:36;;;;;;;6.10;2.08;;;;;;;13.39;84.29;98118.09;8393224;28;20040;-83
2022/09/17 15:07:37;;;;;;;4.80;1.92;;;;;;;13.62;83.94;98126.41;8395242;28;20176;-82
2022/09/17 15:11:40;;;;;;;4.45;1.92;;;;;;;13.95;82.93;98124.88;8394035;28;20048;-83
2022/09/17 15:15:59;;;;;;;6.63;1.63;;;;;;;14.07;80.93;98131.28;8393260;28;20074;-82
2022/09/17 15:20:03;;;;;;;8.52;2.00;;;;;;;13.94;80.22;98142.28;8393839;28;20068;-82
2022/09/17 15:24:26;;;;;;;7.05;1.75;;;;;;;13.81;80.24;98157.09;8373700;28;20918;-82
2022/09/17 15:28:40;;;;;;;4.80;1.67;;;;;;;13.70;80.76;98160.69;8392729;28;20135;-83
2022/09/17 15:32:47;;;;;;;7.93;1.98;;;;;;;13.58;80.53;98168.94;8392635;28;20044;-82
2022/09/17 15:37:15;;;;;;;9.77;2.40;;;;;;;13.52;81.10;98176.56;8393293;28;20140;-81
2022/09/17 15:41:32;;;;;;;7.60;2.20;;;;;;;13.52;81.47;98182.00;8391802;28;20490;-82
2022/09/17 15:45:38;;;;;;;6.72;1.85;;;;;;;13.45;81.77;98176.38;8391353;28;20041;-84
2022/09/17 15:49:38;;;;;;;6.25;1.80;;;;;;;13.41;81.81;98180.94;8359562;28;20414;-83
2022/09/17 15:53:50;;;;;;;8.98;1.92;;;;;;;13.32;82.45;98183.03;8391278;28;20609;-82
2022/09/17 15:57:51;;;;;;;9.10;2.30;;;;;;;13.21;83.48;98171.13;8393683;28;20057;-82
2022/09/17 16:01:55;;;;;;;7.82;1.60;;;;;;;13.09;84.20;98175.44;8357515;28;20063;-83
2022/09/17 16:05:56;;;;;;;7.13;1.90;;;;;;;13.01;84.46;98181.78;8392571;28;20482;-82
2022/09/17 16:09:59;;;;;;;5.60;2.00;;;;;;;12.86;85.28;98187.97;8356482;28;20048;-83
2022/09/17 16:14:00;;;;;;;11.57;2.47;;;;;;;12.77;85.66;98198.19;8393624;28;20071;-86
2022/09/17 16:18:02;;;;;;;17.27;10.20;;;;;;;12.66;85.80;98199.78;8392606;28;20155;-82
2022/09/17 16:22:03;;;;;;;6.97;2.35;;;;;;;12.62;85.81;98207.03;8392117;28;20083;-82
2022/09/17 16:26:05;;;;;;;9.10;5.18;;;;;;;12.51;86.09;98214.06;8388645;28;20087;-83
2022/09/17 16:30:09;;;;;;;5.68;2.20;;;;;;;12.42;86.20;98210.72;8392317;28;20094;-83
2022/09/17 16:34:10;;;;;;;15.60;2.42;;;;;;;12.34;86.25;98225.16;8375724;28;20059;-82
2022/09/17 16:38:11;;;;;;;8.98;2.50;;;;;;;12.28;86.42;98222.69;8391063;28;20040;-83
2022/09/17 16:42:13;;;;;;;5.15;2.22;;;;;;;12.22;86.73;98218.63;8393633;28;20059;-83
2022/09/17 16:46:14;;;;;;;9.48;3.17;;;;;;;12.17;86.82;98216.16;8390774;28;20597;-82
2022/09/17 16:50:17;;;;;;;6.47;2.60;;;;;;;12.18;87.02;98212.31;8392031;28;20444;-82
2022/09/17 16:54:18;;;;;;;7.10;3.53;;;;;;;12.16;87.33;98209.16;8373326;28;20117;-81
2022/09/17 16:58:19;;;;;;;11.63;3.35;;;;;;;12.14;87.79;98206.00;8391209;28;20041;-82
2022/09/17 17:02:20;;;;;;;9.75;2.47;;;;;;;12.10;88.02;98210.53;8393659;28;20064;-81
2022/09/17 17:06:22;;;;;;;9.57;2.60;;;;;;;12.04;88.20;98217.31;8392271;28;20648;-81
2022/09/17 17:10:25;;;;;;;8.68;2.45;;;;;;;11.97;88.38;98208.94;8390909;28;20139;-82
2022/09/17 17:14:26;;;;;;;9.77;3.47;;;;;;;11.91;88.70;98213.00;8395012;28;20040;-81
2022/09/17 17:18:27;;;;;;;10.10;2.45;;;;;;;11.89;88.91;98209.06;8397720;28;20734;-83
2022/09/17 17:22:28;;;;;;;11.35;3.22;;;;;;;11.83;89.00;98216.63;8398631;28;20138;-82
2022/09/17 17:26:29;;;;;;;16.48;6.80;;;;;;;11.77;89.50;98223.38;8397243;28;20061;-82
2022/09/17 17:30:31;;;;;;;7.40;2.00;;;;;;;11.72;89.69;98226.28;8398804;28;20431;-82
2022/09/17 17:34:32;;;;;;;11.43;2.78;;;;;;;11.68;89.86;98219.97;8397931;28;20064;-83
2022/09/17 17:38:33;;;;;;;7.45;2.67;;;;;;;11.63;90.18;98233.72;8379147;28;20496;-82
2022/09/17 17:42:37;;;;;;;11.93;3.35;;;;;;;11.55;90.99;98237.31;8400555;28;20462;-83
2022/09/17 17:46:38;;;;;;;15.15;2.80;;;;;;;11.50;91.30;98242.91;8417868;28;20066;-82
2022/09/17 17:50:39;;;;;;;15.27;3.65;;;;;;;11.44;91.54;98237.72;8432947;28;20044;-84
2022/09/17 17:54:40;;;;;;;11.07;2.92;;;;;;;11.41;91.89;98243.81;8415720;28;20390;-83
2022/09/17 17:58:41;;;;;;;14.30;3.22;;;;;;;11.37;91.89;98242.88;8430862;28;20040;-82
2022/09/17 18:02:43;;;;;;;18.85;6.25;;;;;;;11.36;92.05;98241.34;8398165;28;20398;-82
2022/09/17 18:06:43;;;;;;;16.77;3.63;;;;;;;11.37;91.95;98248.28;8412905;28;20032;-82
2022/09/17 18:10:55;;;;;;;11.73;4.00;;;;;;;11.36;91.80;98241.34;8407822;28;20486;-84
2022/09/17 18:14:56;;;;;;;11.60;3.22;;;;;;;11.35;91.60;98249.78;8415865;28;20079;-83
2022/09/17 18:18:58;;;;;;;13.18;3.42;;;;;;;11.34;91.53;98254.38;8417214;28;20478;-81
2022/09/17 18:22:59;;;;;;;16.50;3.65;;;;;;;11.33;91.18;98247.38;8421088;28;20387;-82
2022/09/17 18:27:01;;;;;;;13.48;3.53;;;;;;;11.33;90.98;98247.38;8397449;28;20072;-82
2022/09/17 18:31:17;;;;;;;12.70;3.58;;;;;;;11.31;90.81;98244.25;8401428;28;20093;-82
2022/09/17 18:35:18;;;;;;;12.95;3.72;;;;;;;11.28;90.62;98244.91;8427642;28;20127;-82
2022/09/17 18:39:20;;;;;;;12.35;2.70;;;;;;;11.25;90.59;98239.38;8430653;28;20051;-83
2022/09/17 18:43:21;;;;;;;10.75;2.85;;;;;;;11.22;90.21;98246.22;8430126;28;20040;-83
2022/09/17 18:47:22;;;;;;;9.07;2.50;;;;;;;11.17;89.92;98249.16;8424551;28;20044;-83
2022/09/17 18:51:24;;;;;;;5.70;2.15;;;;;;;11.20;89.53;98247.69;8431069;28;20052;-83
2022/09/17 18:55:27;;;;;;;9.35;2.83;;;;;;;11.16;89.45;98247.56;8431052;28;20075;-83
2022/09/17 18:59:29;;;;;;;10.93;2.50;;;;;;;11.13;89.24;98244.75;8430798;28;20047;-83
2022/09/17 19:03:31;;;;;;;9.43;3.17;;;;;;;11.07;88.96;98249.56;8418625;28;20359;-83
2022/09/17 19:07:33;;;;;;;10.23;3.20;;;;;;;11.03;89.10;98259.47;8415535;28;20036;-83
2022/09/17 19:11:35;;;;;;;9.73;2.20;;;;;;;10.95;88.89;98257.59;8402743;28;20048;-82
2022/09/17 19:15:36;;;;;;;10.07;2.25;;;;;;;10.89;88.72;98242.75;8397567;28;20056;-81
2022/09/17 19:19:37;;;;;;;3.95;1.75;;;;;;;10.87;88.47;98255.78;8427785;28;20079;-84
2022/09/17 19:23:48;;;;;;;7.22;2.42;;;;;;;10.82;88.43;98258.69;8399813;28;21597;-82